Time;durP1;ratioP1;P1;durP2;ratioP2;P2;SDS_P1;SDS_P2;PMS_P1;PMS_P2;Temp;Humidity;BMP_temperature;BMP_pressure;BME280_temperature;BME280_humidity;BME280_pressure;Samples;Min_cycle;Max_cycle;Signal;HPM_P1;HPM_P2
2023/07/05 00:00:44;;;;;;;6.60;4.28;;;17.20;99.90;;;;;;5029426;28;20466;-65
2023/07/05 00:03:10;;;;;;;5.80;4.05;;;17.30;99.90;;;;;;5036416;28;20032;-65
2023/07/05 00:05:39;;;;;;;16.10;5.07;;;17.40;99.90;;;;;;5033702;28;20723;-64
2023/07/05 00:08:06;;;;;;;9.67;4.57;;;17.50;99.90;;;;;;5037003;28;20032;-64
2023/07/05 00:10:32;;;;;;;7.55;4.85;;;17.60;99.90;;;;;;5040322;28;20259;-64
2023/07/05 00:12:59;;;;;;;7.78;4.82;;;17.70;99.90;;;;;;5034593;28;20049;-64
2023/07/05 00:15:25;;;;;;;7.30;4.55;;;17.80;99.90;;;;;;5030182;28;20031;-65
2023/07/05 00:17:51;;;;;;;5.22;3.17;;;17.90;99.90;;;;;;5024001;28;20052;-64
2023/07/05 00:20:17;;;;;;;3.13;2.78;;;18.00;99.90;;;;;;5038274;28;20462;-64
2023/07/05 00:22:42;;;;;;;4.78;3.50;;;18.10;99.90;;;;;;5031628;28;20025;-64
2023/07/05 00:25:08;;;;;;;6.68;2.53;;;18.30;99.90;;;;;;5041897;28;20021;-64
2023/07/05 00:27:33;;;;;;;6.30;2.95;;;18.50;99.90;;;;;;5039144;28;20033;-64
2023/07/05 00:29:59;;;;;;;4.25;2.50;;;18.70;99.90;;;;;;5035976;28;20029;-65
2023/07/05 00:32:25;;;;;;;6.70;3.42;;;18.70;99.90;;;;;;5038337;28;20028;-64
2023/07/05 00:34:50;;;;;;;4.63;2.58;;;18.70;99.90;;;;;;5045211;28;20092;-65
2023/07/05 00:37:16;;;;;;;5.50;2.78;;;18.80;99.90;;;;;;5040380;28;20041;-64
2023/07/05 00:39:41;;;;;;;6.25;2.65;;;18.80;99.90;;;;;;5036960;28;20032;-63
2023/07/05 00:42:07;;;;;;;4.47;2.33;;;18.90;99.90;;;;;;5040607;28;20099;-63
2023/07/05 00:44:33;;;;;;;3.20;2.42;;;18.90;99.90;;;;;;5043621;28;20389;-63
2023/07/05 00:47:23;;;;;;;5.78;2.20;;;19.00;99.90;;;;;;5044728;28;20060;-63
2023/07/05 00:49:49;;;;;;;4.88;2.17;;;19.00;99.90;;;;;;5037685;28;20037;-63
2023/07/05 00:52:17;;;;;;;3.95;2.47;;;19.10;99.90;;;;;;5048679;28;20431;-63
2023/07/05 00:54:48;;;;;;;3.95;2.15;;;19.10;99.90;;;;;;5038536;28;20064;-63
2023/07/05 00:57:20;;;;;;;7.00;2.55;;;19.10;99.90;;;;;;5035499;28;20025;-63
2023/07/05 00:59:55;;;;;;;5.07;2.42;;;19.10;99.90;;;;;;5048165;28;20096;-63
2023/07/05 01:02:22;;;;;;;6.70;2.13;;;19.10;99.90;;;;;;5043825;28;20044;-63
2023/07/05 01:04:48;;;;;;;4.00;2.50;;;19.10;99.90;;;;;;5036133;28;20057;-63
2023/07/05 01:07:14;;;;;;;2.85;2.30;;;19.20;99.90;;;;;;5036270;28;20033;-63
2023/07/05 01:09:39;;;;;;;2.88;2.15;;;19.20;99.90;;;;;;5044576;28;20374;-63
2023/07/05 01:12:09;;;;;;;4.72;2.15;;;19.10;99.90;;;;;;5042374;28;20020;-63
2023/07/05 01:14:50;;;;;;;5.82;2.28;;;19.10;99.90;;;;;;5033072;28;20370;-63
2023/07/05 01:17:45;;;;;;;;;;;19.10;99.90;;;;;;5038830;28;20049;-63
2023/07/05 01:20:28;;;;;;;3.53;2.22;;;19.10;99.90;;;;;;5030696;28;19924;-62
2023/07/05 01:23:31;;;;;;;3.90;2.30;;;19.10;99.90;;;;;;5035168;28;20025;-63
2023/07/05 01:26:26;;;;;;;5.07;2.25;;;19.10;99.90;;;;;;5027153;28;20417;-63
2023/07/05 01:29:07;;;;;;;3.72;2.45;;;19.00;99.90;;;;;;5039565;28;20033;-63
2023/07/05 01:31:38;;;;;;;;;;;18.90;99.90;;;;;;5037187;28;20026;-63
2023/07/05 01:34:17;;;;;;;4.72;1.95;;;18.80;99.90;;;;;;5049631;28;19908;-63
2023/07/05 01:36:42;;;;;;;7.35;2.05;;;18.70;99.90;;;;;;5042815;28;20026;-63
2023/07/05 01:39:08;;;;;;;6.05;1.80;;;18.70;99.90;;;;;;5036668;28;20044;-63
2023/07/05 01:41:34;;;;;;;2.40;1.35;;;18.60;99.90;;;;;;5033771;28;20029;-63
2023/07/05 01:43:59;;;;;;;4.22;1.80;;;18.60;99.90;;;;;;5046869;28;20458;-63
2023/07/05 01:46:28;;;;;;;1.83;1.30;;;18.60;99.90;;;;;;5040523;28;20017;-63
2023/07/05 01:49:26;;;;;;;3.78;1.60;;;18.60;99.90;;;;;;5040184;28;20037;-63
2023/07/05 01:52:03;;;;;;;3.97;1.40;;;18.60;99.90;;;;;;5035614;28;20044;-63
2023/07/05 01:54:52;;;;;;;2.70;1.60;;;18.60;99.90;;;;;;5038412;28;20056;-63
2023/07/05 01:57:24;;;;;;;2.13;1.42;;;18.60;99.90;;;;;;5034404;28;20022;-63
2023/07/05 01:59:55;;;;;;;2.25;1.73;;;18.70;99.90;;;;;;5047527;28;20056;-62
2023/07/05 02:02:26;;;;;;;2.17;1.35;;;18.70;99.90;;;;;;5041868;28;20029;-63
2023/07/05 02:04:52;;;;;;;1.73;1.30;;;18.70;99.90;;;;;;5034757;28;20025;-63
2023/07/05 02:07:27;;;;;;;1.55;1.45;;;18.70;99.90;;;;;;5035347;28;20025;-63
2023/07/05 02:09:53;;;;;;;2.65;1.50;;;18.70;99.90;;;;;;5026978;28;20025;-63
2023/07/05 02:12:18;;;;;;;3.55;1.42;;;18.70;99.90;;;;;;5035372;28;20025;-63
2023/07/05 02:14:44;;;;;;;1.98;1.63;;;18.80;99.90;;;;;;5032715;28;20093;-63
2023/07/05 02:17:10;;;;;;;1.38;1.27;;;18.80;99.90;;;;;;5044011;28;20033;-63
2023/07/05 02:19:35;;;;;;;1.40;1.30;;;18.80;99.90;;;;;;5034093;28;20029;-63
2023/07/05 02:22:02;;;;;;;1.75;1.50;;;19.00;99.90;;;;;;5036722;28;20104;-63
2023/07/05 02:24:28;;;;;;;3.63;1.58;;;19.00;99.90;;;;;;5039887;28;20044;-63
2023/07/05 02:26:55;;;;;;;3.72;1.45;;;19.00;99.90;;;;;;5043678;28;20490;-63
2023/07/05 02:29:21;;;;;;;3.10;1.58;;;19.00;99.90;;;;;;5036457;28;20029;-63
2023/07/05 02:31:46;;;;;;;3.72;1.33;;;19.10;99.90;;;;;;5036802;28;20025;-63
2023/07/05 02:34:12;;;;;;;2.95;1.15;;;19.20;99.90;;;;;;5047591;28;20025;-63
2023/07/05 02:36:38;;;;;;;2.13;1.40;;;19.20;99.90;;;;;;5040169;28;20033;-63
2023/07/05 02:39:04;;;;;;;1.55;1.40;;;19.30;99.90;;;;;;5034812;28;20098;-63
2023/07/05 02:41:29;;;;;;;3.20;2.00;;;19.30;99.90;;;;;;5032562;28;20030;-63
2023/07/05 02:43:55;;;;;;;4.95;2.00;;;19.20;99.90;;;;;;5045122;28;20024;-63
2023/07/05 02:46:23;;;;;;;4.60;2.22;;;18.80;99.90;;;;;;5039491;28;20451;-63
2023/07/05 02:48:49;;;;;;;3.95;1.88;;;18.50;99.90;;;;;;5033365;28;20061;-63
2023/07/05 02:51:14;;;;;;;4.20;1.63;;;18.20;99.90;;;;;;5042524;28;20021;-63
2023/07/05 02:53:40;;;;;;;2.13;1.48;;;18.00;99.90;;;;;;5040154;28;20026;-63
2023/07/05 02:56:06;;;;;;;3.58;1.70;;;17.80;99.90;;;;;;5035022;28;20017;-63
2023/07/05 02:58:32;;;;;;;2.03;1.67;;;17.70;99.90;;;;;;5039597;28;20036;-63
2023/07/05 03:00:57;;;;;;;3.10;1.83;;;17.60;99.90;;;;;;5042108;28;20025;-63
2023/07/05 03:03:23;;;;;;;2.50;1.67;;;17.60;99.90;;;;;;5036077;28;20048;-63
2023/07/05 03:05:59;;;;;;;2.17;1.90;;;17.50;99.90;;;;;;5031590;28;20025;-63
2023/07/05 03:08:26;;;;;;;2.60;1.85;;;17.50;99.90;;;;;;5038912;28;20029;-63
2023/07/05 03:10:55;;;;;;;3.38;1.90;;;17.50;99.90;;;;;;5038346;28;20025;-63
2023/07/05 03:13:22;;;;;;;2.43;1.40;;;17.50;99.90;;;;;;5033762;28;20024;-63
2023/07/05 03:15:48;;;;;;;4.40;1.63;;;17.60;99.90;;;;;;5047900;28;20439;-63
2023/07/05 03:18:14;;;;;;;2.45;1.63;;;17.60;99.90;;;;;;5045294;28;20059;-63
2023/07/05 03:20:39;;;;;;;3.85;1.70;;;17.70;99.90;;;;;;5034861;28;20204;-63
2023/07/05 03:23:05;;;;;;;3.97;1.73;;;17.70;99.90;;;;;;5032642;28;20025;-63
2023/07/05 03:25:30;;;;;;;4.47;1.90;;;17.80;99.90;;;;;;5042244;28;20068;-63
2023/07/05 03:27:56;;;;;;;6.70;1.70;;;17.90;99.90;;;;;;5043327;28;20028;-63
2023/07/05 03:30:23;;;;;;;2.50;1.52;;;18.00;99.90;;;;;;5032872;28;20083;-63
2023/07/05 03:32:49;;;;;;;4.20;2.20;;;18.00;99.90;;;;;;5043188;28;20029;-63
2023/07/05 03:35:15;;;;;;;2.45;1.30;;;18.00;99.90;;;;;;5040585;28;20024;-63
2023/07/05 03:37:41;;;;;;;2.30;1.63;;;18.10;99.90;;;;;;5038557;28;20029;-63
2023/07/05 03:40:08;;;;;;;2.65;1.58;;;18.10;99.90;;;;;;5031763;28;20474;-63
2023/07/05 03:42:36;;;;;;;2.65;1.90;;;18.10;99.90;;;;;;5040036;28;20415;-64
2023/07/05 03:45:01;;;;;;;2.08;1.52;;;18.10;99.90;;;;;;5033588;28;20025;-63
2023/07/05 03:47:28;;;;;;;1.98;1.63;;;18.10;99.90;;;;;;5028143;28;20368;-63
2023/07/05 03:49:54;;;;;;;3.63;1.65;;;18.20;99.90;;;;;;5028784;28;20374;-63
2023/07/05 03:52:19;;;;;;;4.43;1.67;;;18.10;99.90;;;;;;5028449;28;20018;-63
2023/07/05 03:54:45;;;;;;;3.53;1.80;;;18.10;99.90;;;;;;5029301;28;20017;-63
2023/07/05 03:57:11;;;;;;;2.13;1.45;;;18.10;99.90;;;;;;5026586;28;20025;-63
2023/07/05 03:59:36;;;;;;;3.75;1.70;;;18.10;99.90;;;;;;5029597;28;20752;-63
2023/07/05 04:02:02;;;;;;;3.70;1.70;;;18.10;99.90;;;;;;5029629;28;20029;-63
2023/07/05 04:04:27;;;;;;;3.47;1.77;;;18.10;99.90;;;;;;5030234;28;20029;-63
2023/07/05 04:06:53;;;;;;;3.25;2.00;;;18.10;99.90;;;;;;5027027;28;20080;-63
2023/07/05 04:09:18;;;;;;;4.05;2.00;;;18.10;99.90;;;;;;5029929;28;20017;-63
2023/07/05 04:11:44;;;;;;;3.53;1.90;;;18.10;99.90;;;;;;5033340;28;20021;-63
2023/07/05 04:14:11;;;;;;;2.30;1.70;;;18.10;99.90;;;;;;5032279;28;20522;-63
2023/07/05 04:16:37;;;;;;;6.75;1.80;;;18.00;99.90;;;;;;5029226;28;20494;-63
2023/07/05 04:19:02;;;;;;;4.65;1.85;;;18.00;99.90;;;;;;5034522;28;20018;-63
2023/07/05 04:21:28;;;;;;;2.30;1.70;;;17.90;99.90;;;;;;5031428;28;20013;-63
2023/07/05 04:23:54;;;;;;;3.13;1.80;;;17.90;99.90;;;;;;5031124;28;20031;-64
2023/07/05 04:26:24;;;;;;;4.30;1.75;;;18.00;99.90;;;;;;5031841;28;20044;-64
2023/07/05 04:28:50;;;;;;;3.03;1.92;;;17.90;99.90;;;;;;5033275;28;20099;-63
2023/07/05 04:31:20;;;;;;;2.47;1.70;;;17.90;99.90;;;;;;5033079;28;20092;-63
2023/07/05 04:33:46;;;;;;;2.95;2.50;;;17.90;99.90;;;;;;5033281;28;20032;-63
2023/07/05 04:36:11;;;;;;;4.40;2.10;;;17.90;99.90;;;;;;5030679;28;20083;-64
2023/07/05 04:38:37;;;;;;;2.55;1.58;;;17.80;99.90;;;;;;5031336;28;20033;-63
2023/07/05 04:41:03;;;;;;;6.78;1.70;;;17.90;99.90;;;;;;5025493;28;20090;-63
2023/07/05 04:43:29;;;;;;;2.08;1.58;;;17.80;99.90;;;;;;5032069;28;20017;-65
2023/07/05 04:45:57;;;;;;;3.03;1.75;;;17.80;99.90;;;;;;5033437;28;20063;-64
2023/07/05 04:48:25;;;;;;;3.72;2.08;;;17.80;99.90;;;;;;5041869;28;20049;-63
2023/07/05 04:50:54;;;;;;;2.67;1.92;;;17.80;99.90;;;;;;5054898;28;20075;-63
2023/07/05 04:53:23;;;;;;;2.58;1.60;;;17.80;99.90;;;;;;5054467;28;20376;-62
2023/07/05 04:55:52;;;;;;;2.73;1.80;;;17.90;99.90;;;;;;5055706;28;20350;-65
2023/07/05 04:58:18;;;;;;;4.82;1.50;;;17.90;99.90;;;;;;5054650;28;20098;-62
2023/07/05 05:00:49;;;;;;;2.63;1.77;;;17.90;99.90;;;;;;5058573;28;20092;-62
2023/07/05 05:03:22;;;;;;;3.25;1.48;;;18.00;99.90;;;;;;5055397;28;20024;-63
2023/07/05 05:05:51;;;;;;;3.28;1.63;;;18.10;99.90;;;;;;5052280;28;20036;-63
2023/07/05 05:08:19;;;;;;;3.00;1.67;;;18.10;99.90;;;;;;5054555;28;20025;-63
2023/07/05 05:10:44;;;;;;;4.68;2.13;;;18.20;99.90;;;;;;5053087;28;20048;-63
2023/07/05 05:13:10;;;;;;;2.35;1.50;;;18.30;99.90;;;;;;5056369;28;20033;-63
2023/07/05 05:15:39;;;;;;;2.50;1.60;;;18.40;99.90;;;;;;5054174;28;20021;-63
2023/07/05 05:18:07;;;;;;;6.13;1.98;;;18.50;99.90;;;;;;5067506;28;20394;-63
2023/07/05 05:20:33;;;;;;;1.60;1.50;;;18.50;99.90;;;;;;5055318;28;20032;-64
2023/07/05 05:22:59;;;;;;;3.90;1.55;;;18.60;99.90;;;;;;5054385;28;20048;-63
2023/07/05 05:25:26;;;;;;;3.95;1.40;;;18.60;99.90;;;;;;5063528;28;20464;-63
2023/07/05 05:27:52;;;;;;;3.03;1.75;;;18.70;99.90;;;;;;5049558;28;20028;-65
2023/07/05 05:30:17;;;;;;;3.80;1.45;;;18.80;99.90;;;;;;5054394;28;20029;-64
2023/07/05 05:32:45;;;;;;;5.07;1.63;;;19.00;99.90;;;;;;5064045;28;20086;-67
2023/07/05 05:35:10;;;;;;;2.60;1.77;;;19.20;99.90;;;;;;5061728;28;20021;-62
2023/07/05 05:37:36;;;;;;;2.83;1.80;;;19.20;99.90;;;;;;5062314;28;20087;-66
2023/07/05 05:40:02;;;;;;;2.80;1.70;;;19.30;99.90;;;;;;5057709;28;20365;-63
2023/07/05 05:42:29;;;;;;;4.13;1.80;;;19.30;99.90;;;;;;5053380;28;20038;-64
2023/07/05 05:44:55;;;;;;;4.40;1.77;;;19.30;99.90;;;;;;5052206;28;20041;-64
2023/07/05 05:47:20;;;;;;;3.85;1.80;;;19.30;99.90;;;;;;5053814;28;20090;-64
2023/07/05 05:49:46;;;;;;;2.05;1.55;;;19.30;99.90;;;;;;5058982;28;20041;-63
2023/07/05 05:52:11;;;;;;;2.78;1.58;;;19.30;99.90;;;;;;5051581;28;20029;-66
2023/07/05 05:54:37;;;;;;;3.25;2.00;;;19.40;99.90;;;;;;5052462;28;20619;-63
2023/07/05 05:57:03;;;;;;;3.92;2.05;;;19.50;99.90;;;;;;5052705;28;20044;-66
2023/07/05 05:59:29;;;;;;;3.33;1.80;;;19.80;99.90;;;;;;5050251;28;20029;-64
2023/07/05 06:01:54;;;;;;;3.88;1.77;;;20.20;99.90;;;;;;5064892;28;20016;-64
2023/07/05 06:04:20;;;;;;;3.50;1.95;;;20.40;99.90;;;;;;5055282;28;20025;-67
2023/07/05 06:06:46;;;;;;;3.47;1.90;;;20.70;99.90;;;;;;5052802;28;20095;-63
2023/07/05 06:09:14;;;;;;;2.53;1.90;;;21.00;99.90;;;;;;5052691;28;20480;-65
2023/07/05 06:11:39;;;;;;;3.80;1.88;;;21.20;99.90;;;;;;5058036;28;20055;-64
2023/07/05 06:14:06;;;;;;;4.43;1.77;;;21.30;99.90;;;;;;5052276;28;20021;-66
2023/07/05 06:16:31;;;;;;;2.88;1.85;;;21.40;99.90;;;;;;5055776;28;20017;-66
2023/07/05 06:18:57;;;;;;;5.22;2.20;;;21.40;99.90;;;;;;5060000;28;20033;-66
2023/07/05 06:21:23;;;;;;;4.50;2.50;;;21.40;99.90;;;;;;5051700;28;20021;-66
2023/07/05 06:23:49;;;;;;;3.55;2.80;;;21.40;99.90;;;;;;5056150;28;20437;-66
2023/07/05 06:26:15;;;;;;;4.53;2.00;;;21.40;99.90;;;;;;5067597;28;20020;-66
2023/07/05 06:28:40;;;;;;;2.95;1.98;;;21.50;99.90;;;;;;5052532;28;20790;-67
2023/07/05 06:31:09;;;;;;;2.40;2.08;;;21.50;99.90;;;;;;5054525;28;20028;-63
2023/07/05 06:33:35;;;;;;;1.98;1.88;;;21.60;99.90;;;;;;5046182;28;20379;-64
2023/07/05 06:36:01;;;;;;;3.03;1.85;;;21.80;99.90;;;;;;5065038;28;20020;-63
2023/07/05 06:38:28;;;;;;;3.65;2.00;;;21.90;99.90;;;;;;5055649;28;20055;-64
2023/07/05 06:40:53;;;;;;;4.75;2.05;;;22.00;99.90;;;;;;5063887;28;20025;-63
2023/07/05 06:43:20;;;;;;;3.05;2.05;;;22.00;99.90;;;;;;5057069;28;20070;-64
2023/07/05 06:45:48;;;;;;;4.05;2.60;;;21.80;99.90;;;;;;5060111;28;20079;-63
2023/07/05 06:48:13;;;;;;;4.97;2.30;;;21.30;99.90;;;;;;5041199;28;20073;-63
2023/07/05 06:50:39;;;;;;;6.20;2.28;;;20.50;99.90;;;;;;5055755;28;20059;-63
2023/07/05 06:53:05;;;;;;;3.63;2.20;;;19.80;99.90;;;;;;5058797;28;20021;-63
2023/07/05 06:55:30;;;;;;;3.25;2.60;;;19.20;99.90;;;;;;5055680;28;20017;-63
2023/07/05 06:57:56;;;;;;;6.40;2.60;;;18.80;99.90;;;;;;5056993;28;20024;-63
2023/07/05 07:00:21;;;;;;;3.33;2.05;;;18.40;99.90;;;;;;5066080;28;20107;-63
2023/07/05 07:02:47;;;;;;;7.43;3.05;;;18.10;99.90;;;;;;5056871;28;20021;-63
2023/07/05 07:05:15;;;;;;;6.45;2.38;;;17.80;99.90;;;;;;5052065;28;20037;-62
2023/07/05 07:07:40;;;;;;;3.15;2.30;;;17.60;99.90;;;;;;5055461;28;20072;-62
2023/07/05 07:10:06;;;;;;;9.77;2.75;;;17.40;99.90;;;;;;5052893;28;20090;-62
2023/07/05 07:12:33;;;;;;;4.57;2.83;;;17.20;99.90;;;;;;5063886;28;20029;-62
2023/07/05 07:14:58;;;;;;;3.60;2.63;;;17.10;99.90;;;;;;5063556;28;20334;-63
2023/07/05 07:17:24;;;;;;;6.43;2.90;;;17.00;99.90;;;;;;5053864;28;20055;-63
2023/07/05 07:19:50;;;;;;;4.30;3.03;;;17.00;99.90;;;;;;5052024;28;20347;-62
2023/07/05 07:22:16;;;;;;;8.30;4.13;;;17.10;99.90;;;;;;5057033;28;20025;-62
2023/07/05 07:24:42;;;;;;;4.18;2.95;;;17.20;99.90;;;;;;5059810;28;20047;-62
2023/07/05 07:27:08;;;;;;;3.30;3.00;;;17.30;99.90;;;;;;5057166;28;20327;-63
2023/07/05 07:29:35;;;;;;;5.55;3.10;;;17.50;99.90;;;;;;5059729;28;20449;-63
2023/07/05 07:32:01;;;;;;;5.35;2.72;;;17.70;99.90;;;;;;5058823;28;20079;-63
2023/07/05 07:34:28;;;;;;;4.78;2.58;;;17.90;99.90;;;;;;5053023;28;20107;-63
2023/07/05 07:36:54;;;;;;;4.50;2.38;;;18.10;99.90;;;;;;5054292;28;20024;-63
2023/07/05 07:39:19;;;;;;;6.25;2.30;;;18.30;99.90;;;;;;5057991;28;20079;-64
2023/07/05 07:41:45;;;;;;;4.22;2.45;;;18.40;99.90;;;;;;5051917;28;20024;-63
2023/07/05 07:44:11;;;;;;;5.15;2.50;;;18.50;99.90;;;;;;5058802;28;20036;-63
2023/07/05 07:46:38;;;;;;;1.48;1.38;;;18.70;99.90;;;;;;5049082;28;20021;-63
2023/07/05 07:49:09;;;;;;;3.10;1.88;;;19.10;99.90;;;;;;5055398;28;20405;-63
2023/07/05 07:51:35;;;;;;;;;;;19.30;99.90;;;;;;5037181;28;20099;-63
2023/07/05 07:54:01;;;;;;;2.10;1.40;;;19.40;99.90;;;;;;5057741;28;19908;-63
2023/07/05 07:56:27;;;;;;;3.80;1.65;;;19.20;99.90;;;;;;5049708;28;20021;-63
2023/07/05 07:58:55;;;;;;;2.42;1.60;;;19.10;99.90;;;;;;5049864;28;20021;-63
2023/07/05 08:01:26;;;;;;;2.97;1.48;;;18.90;99.90;;;;;;5049558;28;20045;-64
2023/07/05 08:03:53;;;;;;;1.77;1.52;;;18.60;99.90;;;;;;5049561;28;20493;-63
2023/07/05 08:06:26;;;;;;;3.53;1.48;;;18.40;99.90;;;;;;5049506;28;20021;-64
2023/07/05 08:08:52;;;;;;;3.38;1.60;;;18.20;99.90;;;;;;5051347;28;20044;-63
2023/07/05 08:11:17;;;;;;;2.15;1.42;;;18.10;99.90;;;;;;5055259;28;20013;-67
2023/07/05 08:13:44;;;;;;;2.65;1.60;;;18.00;99.90;;;;;;5052014;28;20366;-65
2023/07/05 08:16:09;;;;;;;4.68;1.75;;;17.90;99.90;;;;;;5049931;28;20041;-65
2023/07/05 08:18:35;;;;;;;2.80;1.65;;;17.80;99.90;;;;;;5048966;28;20032;-65
2023/07/05 08:21:01;;;;;;;4.13;1.90;;;17.70;99.90;;;;;;5050389;28;20021;-65
2023/07/05 08:23:28;;;;;;;2.70;1.70;;;17.70;99.90;;;;;;5048658;28;20025;-66
2023/07/05 08:25:56;;;;;;;1.98;1.48;;;17.70;99.90;;;;;;5031626;28;20024;-65
2023/07/05 08:28:25;;;;;;;4.25;1.65;;;17.60;99.90;;;;;;5058792;28;20039;-67
2023/07/05 08:30:54;;;;;;;3.05;1.60;;;17.50;99.90;;;;;;5050023;28;20017;-65
2023/07/05 08:33:21;;;;;;;5.93;1.88;;;17.40;99.90;;;;;;5049238;28;20032;-67
2023/07/05 08:35:47;;;;;;;2.40;1.67;;;17.40;99.90;;;;;;5049818;28;20051;-65
2023/07/05 08:38:13;;;;;;;4.25;1.88;;;17.30;99.90;;;;;;5049800;28;20425;-65
2023/07/05 08:40:42;;;;;;;2.45;1.67;;;17.30;99.90;;;;;;5048607;28;20027;-65
2023/07/05 08:43:34;;;;;;;2.45;2.13;;;17.30;99.90;;;;;;5049821;28;20032;-65
2023/07/05 08:46:10;;;;;;;2.22;1.90;;;17.40;99.90;;;;;;5052732;28;20106;-65
2023/07/05 08:48:36;;;;;;;1.88;1.67;;;17.40;99.90;;;;;;5037988;28;20047;-65
2023/07/05 08:51:03;;;;;;;1.95;1.40;;;17.70;99.90;;;;;;5049857;28;20100;-65
2023/07/05 08:53:31;;;;;;;3.70;1.70;;;17.80;99.90;;;;;;5048553;28;20028;-64
2023/07/05 08:56:04;;;;;;;1.85;1.65;;;18.00;99.90;;;;;;5051766;28;20029;-65
2023/07/05 08:58:40;;;;;;;2.05;1.65;;;18.20;99.90;;;;;;5052369;28;20108;-65
2023/07/05 09:01:13;;;;;;;3.63;1.83;;;18.30;99.90;;;;;;5055204;28;20037;-65
2023/07/05 09:03:39;;;;;;;3.15;1.90;;;18.40;99.90;;;;;;5058815;28;20304;-65
2023/07/05 09:06:21;;;;;;;2.60;1.80;;;18.40;99.90;;;;;;5052938;28;20021;-64
2023/07/05 09:08:55;;;;;;;3.25;1.88;;;18.40;99.90;;;;;;5052792;28;20102;-63
2023/07/05 09:11:25;;;;;;;2.58;1.83;;;18.60;99.90;;;;;;5052655;28;20095;-66
2023/07/05 09:14:12;;;;;;;2.40;2.20;;;18.80;99.90;;;;;;5052253;28;20021;-65
2023/07/05 09:17:07;;;;;;;2.78;2.10;;;19.20;99.90;;;;;;5053834;28;20207;-65
2023/07/05 09:19:38;;;;;;;5.13;2.65;;;19.50;99.90;;;;;;5055735;28;20023;-64
2023/07/05 09:22:10;;;;;;;2.40;2.00;;;19.70;99.90;;;;;;5054892;28;20056;-64
2023/07/05 09:24:39;;;;;;;2.90;2.10;;;19.70;99.90;;;;;;5051462;28;20065;-64
2023/07/05 09:27:08;;;;;;;5.28;2.15;;;19.70;99.90;;;;;;5052551;28;20453;-64
2023/07/05 09:29:52;;;;;;;7.20;2.10;;;19.70;99.90;;;;;;5053334;28;20013;-64
2023/07/05 09:32:24;;;;;;;3.28;2.00;;;19.70;99.90;;;;;;5040974;28;20343;-66
2023/07/05 09:34:55;;;;;;;2.60;2.10;;;19.70;99.90;;;;;;5052236;28;20098;-64
2023/07/05 09:37:27;;;;;;;2.97;2.03;;;19.70;99.90;;;;;;5042408;28;20453;-67
2023/07/05 09:40:02;;;;;;;5.15;2.40;;;19.90;99.90;;;;;;5051918;28;20083;-64
2023/07/05 09:43:02;;;;;;;3.00;2.20;;;20.10;99.90;;;;;;5050984;28;20041;-65
2023/07/05 09:45:28;;;;;;;2.95;2.13;;;20.40;99.90;;;;;;5027583;28;20060;-65
2023/07/05 09:48:00;;;;;;;4.85;2.13;;;20.50;99.90;;;;;;5051439;28;20036;-65
2023/07/05 09:50:26;;;;;;;6.20;2.58;;;20.70;99.90;;;;;;5051375;28;20453;-64
2023/07/05 09:52:58;;;;;;;3.70;2.65;;;21.00;99.90;;;;;;5058181;28;20032;-64
2023/07/05 09:55:27;;;;;;;4.70;2.75;;;21.20;99.90;;;;;;5050766;28;20024;-64
2023/07/05 09:57:53;;;;;;;4.57;2.80;;;21.50;99.90;;;;;;5051974;28;20028;-64
2023/07/05 10:00:34;;;;;;;3.38;2.67;;;21.80;99.90;;;;;;5050848;28;20021;-66
2023/07/05 10:03:06;;;;;;;;;;;22.00;99.90;;;;;;5051987;28;20021;-64
2023/07/05 10:05:31;;;;;;;3.97;2.80;;;22.20;99.90;;;;;;5054830;28;20356;-64
2023/07/05 10:08:03;;;;;;;6.38;2.55;;;22.30;99.90;;;;;;5051838;28;20083;-64
2023/07/05 10:10:37;;;;;;;6.72;3.15;;;22.50;99.90;;;;;;5061457;28;20020;-64
2023/07/05 10:13:26;;;;;;;5.82;2.90;;;22.60;99.90;;;;;;5052004;28;20033;-65
2023/07/05 10:16:01;;;;;;;3.88;3.17;;;22.80;99.00;;;;;;5052015;28;20155;-65
2023/07/05 10:18:36;;;;;;;4.82;2.88;;;23.00;96.90;;;;;;5050099;28;20036;-65
2023/07/05 10:21:04;;;;;;;4.15;2.75;;;23.20;96.90;;;;;;5051603;28;20452;-65
2023/07/05 10:23:34;;;;;;;4.75;3.00;;;23.40;97.40;;;;;;5050529;28;20027;-65
2023/07/05 10:26:05;;;;;;;3.45;3.15;;;23.40;97.10;;;;;;5052325;28;20034;-64
2023/07/05 10:28:35;;;;;;;3.88;2.83;;;23.40;96.20;;;;;;5052299;28;20124;-65
2023/07/05 10:31:05;;;;;;;3.72;2.90;;;23.40;96.80;;;;;;5051738;28;20025;-65
2023/07/05 10:33:33;;;;;;;3.75;3.42;;;23.40;96.00;;;;;;5050307;28;20029;-64
2023/07/05 10:36:10;;;;;;;3.42;2.97;;;23.40;94.80;;;;;;5051505;28;20025;-64
2023/07/05 10:38:40;;;;;;;5.88;2.97;;;23.30;94.50;;;;;;5050018;28;20107;-65
2023/07/05 10:41:25;;;;;;;4.22;2.88;;;23.30;93.10;;;;;;5051443;28;20056;-65
2023/07/05 10:44:07;;;;;;;3.30;3.00;;;23.40;92.10;;;;;;5051028;28;20421;-64
2023/07/05 10:46:36;;;;;;;3.38;2.90;;;23.50;90.40;;;;;;5049870;28;20025;-65
2023/07/05 10:49:06;;;;;;;4.72;3.38;;;23.60;90.20;;;;;;5030807;28;20030;-64
2023/07/05 10:51:35;;;;;;;3.70;2.95;;;23.60;89.20;;;;;;5030379;28;20037;-65
2023/07/05 10:54:34;;;;;;;4.57;2.97;;;23.60;85.60;;;;;;5029813;28;20017;-65
2023/07/05 10:57:08;;;;;;;3.75;2.75;;;23.70;84.30;;;;;;5030986;28;20029;-64
2023/07/05 10:59:40;;;;;;;3.63;3.20;;;23.70;84.60;;;;;;5029862;28;20542;-64
2023/07/05 11:02:44;;;;;;;3.30;3.00;;;23.80;84.80;;;;;;5025505;28;20094;-65
2023/07/05 11:05:47;;;;;;;4.18;3.25;;;24.00;83.30;;;;;;4996978;28;20041;-65
2023/07/05 11:08:17;;;;;;;4.10;3.47;;;24.20;82.30;;;;;;5012869;28;20053;-65
2023/07/05 11:10:43;;;;;;;;;;;24.50;82.20;;;;;;5030521;28;20018;-64
2023/07/05 11:13:15;;;;;;;5.57;3.50;;;24.70;81.90;;;;;;5025356;28;19901;-64
2023/07/05 11:15:41;;;;;;;5.95;3.50;;;24.70;81.00;;;;;;5029646;28;20044;-64
2023/07/05 11:18:22;;;;;;;6.07;3.80;;;24.70;83.10;;;;;;5029804;28;20500;-64
2023/07/05 11:20:51;;;;;;;4.80;4.10;;;24.60;82.50;;;;;;5030600;28;20359;-64
2023/07/05 11:23:50;;;;;;;4.72;3.78;;;24.70;81.80;;;;;;5030692;28;20044;-67
2023/07/05 11:26:36;;;;;;;4.43;3.38;;;24.80;81.60;;;;;;5030060;28;20071;-65
2023/07/05 11:29:25;;;;;;;4.35;3.60;;;25.00;80.20;;;;;;5030050;28;20469;-65
2023/07/05 11:31:54;;;;;;;5.00;3.40;;;24.60;80.20;;;;;;5030432;28;20025;-65
2023/07/05 11:34:25;;;;;;;3.80;3.03;;;24.40;81.50;;;;;;5031413;28;20047;-67
2023/07/05 11:37:06;;;;;;;5.22;3.13;;;24.50;81.50;;;;;;5030139;28;20025;-65
2023/07/05 11:39:41;;;;;;;4.70;3.22;;;24.20;79.90;;;;;;5025089;28;20026;-65
2023/07/05 11:42:30;;;;;;;5.80;3.10;;;23.80;80.40;;;;;;5030576;28;20470;-65
2023/07/05 11:44:56;;;;;;;8.45;3.20;;;23.70;80.10;;;;;;5016896;28;20042;-65
2023/07/05 11:47:24;;;;;;;4.65;3.00;;;23.70;79.50;;;;;;5035525;28;20166;-67
2023/07/05 11:49:58;;;;;;;3.28;2.97;;;23.70;78.20;;;;;;5049333;28;20097;-66
2023/07/05 11:52:31;;;;;;;3.38;2.63;;;23.80;79.40;;;;;;5051592;28;20350;-65
2023/07/05 11:55:05;;;;;;;3.28;2.40;;;24.10;78.00;;;;;;5050075;28;20048;-65
2023/07/05 11:57:40;;;;;;;7.50;2.90;;;24.40;78.00;;;;;;5048881;28;20394;-65
2023/07/05 12:00:10;;;;;;;4.38;2.67;;;24.60;77.80;;;;;;5050040;28;20025;-65
2023/07/05 12:02:48;;;;;;;3.90;2.88;;;24.50;77.30;;;;;;5048872;28;20032;-66
2023/07/05 12:05:24;;;;;;;3.20;2.90;;;24.40;75.50;;;;;;5050063;28;20425;-65
2023/07/05 12:08:12;;;;;;;4.13;2.60;;;24.20;76.50;;;;;;5049670;28;20021;-66
2023/07/05 12:10:41;;;;;;;3.95;3.25;;;24.50;77.70;;;;;;5046730;28;20567;-65
2023/07/05 12:13:19;;;;;;;4.85;3.42;;;24.60;76.70;;;;;;5049975;28;20104;-65
2023/07/05 12:15:45;;;;;;;4.40;2.70;;;24.60;75.70;;;;;;5049619;28;20032;-65
2023/07/05 12:18:14;;;;;;;4.00;2.42;;;24.60;77.00;;;;;;5050200;28;20025;-65
2023/07/05 12:20:43;;;;;;;4.47;2.60;;;24.80;75.60;;;;;;5049080;28;20159;-65
2023/07/05 12:23:14;;;;;;;5.25;2.55;;;24.90;72.70;;;;;;5049528;28;20036;-66
2023/07/05 12:25:41;;;;;;;6.55;2.50;;;24.80;72.20;;;;;;5054874;28;20034;-65
2023/07/05 12:28:22;;;;;;;8.32;2.58;;;24.50;72.40;;;;;;5055419;28;20021;-65
2023/07/05 12:30:48;;;;;;;6.00;2.08;;;24.60;71.70;;;;;;5052354;28;20056;-65
2023/07/05 12:33:29;;;;;;;4.28;2.38;;;24.50;72.40;;;;;;5053526;28;20079;-65
2023/07/05 12:36:16;;;;;;;7.85;2.30;;;24.50;72.50;;;;;;5053995;28;20025;-65
2023/07/05 12:38:48;;;;;;;2.58;2.17;;;24.50;73.00;;;;;;5052213;28;20287;-65
2023/07/05 12:41:19;;;;;;;3.63;2.67;;;24.50;73.30;;;;;;5053936;28;20021;-65
2023/07/05 12:43:47;;;;;;;3.72;2.40;;;24.80;72.40;;;;;;5058993;28;20467;-66
2023/07/05 12:46:24;;;;;;;2.95;2.38;;;24.90;71.60;;;;;;5053612;28;20082;-66
2023/07/05 12:48:50;;;;;;;3.85;2.50;;;24.80;69.60;;;;;;5052391;28;20041;-65
2023/07/05 12:51:28;;;;;;;5.10;2.35;;;;;;;;;;5053442;28;20029;-64
2023/07/05 12:53:59;;;;;;;2.78;2.25;;;24.90;97.50;;;;;;5052841;28;20063;-65
2023/07/05 12:56:34;;;;;;;4.50;2.10;;;25.20;94.40;;;;;;5039780;28;20445;-65
2023/07/05 12:59:03;;;;;;;3.40;2.17;;;25.20;94.70;;;;;;5053668;28;20394;-64
2023/07/05 13:01:40;;;;;;;4.95;2.08;;;25.20;93.70;;;;;;5063408;28;20017;-65